createdAt,value
2023-08-19T00:01:53.237Z,12.10
2023-08-19T00:04:24.255Z,12.13
2023-08-19T00:07:07.826Z,11.48
2023-08-19T00:09:39.881Z,11.50
2023-08-19T00:12:13.844Z,11.70
2023-08-19T00:14:44.749Z,12.00
2023-08-19T00:17:16.512Z,11.57
2023-08-19T00:19:54.693Z,11.95
2023-08-19T00:25:23.567Z,12.10
2023-08-19T00:27:59.012Z,12.35
2023-08-19T00:30:42.572Z,11.98
2023-08-19T00:33:17.610Z,11.65
2023-08-19T00:36:15.154Z,12.63
2023-08-19T00:39:00.119Z,11.13
2023-08-19T00:41:33.066Z,12.02
2023-08-19T00:44:32.013Z,12.10
2023-08-19T00:47:17.239Z,12.35
2023-08-19T00:49:58.220Z,11.93
2023-08-19T00:52:32.264Z,12.15
2023-08-19T00:55:08.855Z,11.93
2023-08-19T00:57:46.524Z,12.07
2023-08-19T01:00:21.740Z,12.70
2023-08-19T01:02:56.310Z,12.47
2023-08-19T01:05:47.249Z,13.05
2023-08-19T01:08:33.228Z,12.40
2023-08-19T01:11:14.824Z,11.95
2023-08-19T01:14:03.930Z,12.05
2023-08-19T01:16:43.399Z,12.37
2023-08-19T01:19:41.254Z,12.70
2023-08-19T01:22:18.487Z,12.00
2023-08-19T01:24:59.800Z,11.82
2023-08-19T01:28:24.872Z,12.70
2023-08-19T01:40:12.330Z,12.98
2023-08-19T01:42:48.637Z,12.57
2023-08-19T01:45:44.818Z,11.97
2023-08-19T01:51:56.135Z,14.43
2023-08-19T01:54:44.946Z,13.45
2023-08-19T01:58:17.395Z,12.55
2023-08-19T02:01:02.829Z,13.10
2023-08-19T02:03:37.243Z,13.23
2023-08-19T02:06:27.733Z,12.73
2023-08-19T02:13:08.849Z,12.35
2023-08-19T02:22:43.101Z,13.50
2023-08-19T02:25:48.448Z,12.55
2023-08-19T02:28:28.112Z,13.00
2023-08-19T02:31:09.685Z,13.13
2023-08-19T02:33:50.582Z,13.27
2023-08-19T02:40:08.504Z,12.63
2023-08-19T02:45:56.282Z,12.33
2023-08-19T02:48:32.306Z,12.48
2023-08-19T02:51:31.256Z,12.93
2023-08-19T02:54:56.862Z,12.35
2023-08-19T02:57:58.903Z,11.93
2023-08-19T03:00:32.480Z,13.20
2023-08-19T03:06:33.991Z,12.35
2023-08-19T03:09:22.042Z,12.90
2023-08-19T03:12:37.879Z,12.50
2023-08-19T03:16:21.563Z,11.10
2023-08-19T03:19:16.127Z,12.30
2023-08-19T03:22:05.097Z,12.00
2023-08-19T03:24:34.474Z,11.60
2023-08-19T03:27:23.402Z,12.95
2023-08-19T03:30:03.234Z,12.27
2023-08-19T03:36:17.771Z,13.20
2023-08-19T03:39:01.259Z,12.77
2023-08-19T03:41:37.201Z,12.88
2023-08-19T03:44:08.028Z,12.37
2023-08-19T03:46:51.067Z,13.05
2023-08-19T03:49:25.816Z,12.65
2023-08-19T03:51:59.863Z,13.02
2023-08-19T03:54:35.967Z,13.40
2023-08-19T03:57:08.467Z,13.13
2023-08-19T03:59:44.252Z,12.82
2023-08-19T04:02:13.154Z,12.95
2023-08-19T04:05:01.111Z,13.40
2023-08-19T04:07:45.806Z,13.35
2023-08-19T04:10:14.866Z,13.20
2023-08-19T04:12:43.376Z,12.98
2023-08-19T04:15:18.882Z,12.70
2023-08-19T04:17:51.387Z,12.30
2023-08-19T04:20:21.826Z,13.52
2023-08-19T04:22:54.050Z,13.30
2023-08-19T04:25:22.881Z,13.15
2023-08-19T04:27:56.356Z,12.25
2023-08-19T04:30:31.717Z,13.60
2023-08-19T04:33:04.839Z,13.23
2023-08-19T04:35:36.524Z,12.57
2023-08-19T04:38:12.667Z,12.57
2023-08-19T04:40:43.227Z,13.70
2023-08-19T04:43:15.062Z,12.77
2023-08-19T04:45:51.209Z,12.25
2023-08-19T04:48:24.555Z,12.40
2023-08-19T04:51:01.981Z,12.98
2023-08-19T04:53:33.503Z,12.32
2023-08-19T04:56:07.318Z,13.20
2023-08-19T04:58:38.753Z,12.65
2023-08-19T05:01:08.503Z,12.50
2023-08-19T05:03:37.391Z,12.80
2023-08-19T05:06:07.574Z,12.15
2023-08-19T05:08:37.586Z,12.82
2023-08-19T05:11:06.055Z,12.93
2023-08-19T05:13:34.662Z,12.90
2023-08-19T05:16:03.395Z,12.93
2023-08-19T05:18:31.559Z,13.48
2023-08-19T05:20:59.844Z,12.27
2023-08-19T05:23:29.521Z,12.27
2023-08-19T05:25:57.925Z,12.10
2023-08-19T05:28:29.078Z,12.13
2023-08-19T05:30:57.749Z,12.32
2023-08-19T05:33:25.853Z,11.77
2023-08-19T05:35:54.199Z,12.05
2023-08-19T05:38:22.268Z,12.00
2023-08-19T05:40:52.180Z,11.88
2023-08-19T05:43:23.142Z,11.93
2023-08-19T05:45:51.620Z,11.43
2023-08-19T05:48:19.913Z,10.88
2023-08-19T05:50:53.378Z,12.50
2023-08-19T05:53:21.773Z,12.95
2023-08-19T05:55:53.788Z,11.52
2023-08-19T05:58:25.347Z,11.38
2023-08-19T06:01:15.557Z,13.38
2023-08-19T06:03:45.239Z,12.20
2023-08-19T06:06:12.752Z,11.15
2023-08-19T06:08:40.457Z,12.23
2023-08-19T06:11:10.992Z,11.63
2023-08-19T06:13:39.306Z,10.60
2023-08-19T06:16:07.798Z,10.90
2023-08-19T06:18:36.256Z,10.63
2023-08-19T06:21:05.109Z,11.57
2023-08-19T06:23:34.066Z,11.00
2023-08-19T06:26:01.938Z,11.15
2023-08-19T06:28:31.239Z,11.37
2023-08-19T06:30:59.495Z,11.45
2023-08-19T06:33:29.297Z,11.55
2023-08-19T06:35:59.567Z,11.55
2023-08-19T06:38:30.658Z,11.60
2023-08-19T06:41:06.508Z,12.60
2023-08-19T06:43:38.368Z,11.45
2023-08-19T06:46:07.448Z,11.45
2023-08-19T06:48:36.778Z,12.07
2023-08-19T06:51:05.693Z,11.88
2023-08-19T06:53:35.386Z,12.23
2023-08-19T06:56:09.489Z,12.15
2023-08-19T06:58:43.238Z,12.50
2023-08-19T07:01:15.863Z,11.27
2023-08-19T07:03:44.121Z,12.57
2023-08-19T07:06:16.966Z,11.17
2023-08-19T07:08:45.602Z,12.63
2023-08-19T07:11:13.705Z,12.43
2023-08-19T07:13:43.327Z,12.43
2023-08-19T07:16:13.925Z,12.80
2023-08-19T07:18:43.286Z,13.03
2023-08-19T07:21:13.116Z,13.05
2023-08-19T07:23:42.706Z,12.88
2023-08-19T07:26:10.521Z,13.90
2023-08-19T07:28:38.318Z,13.48
2023-08-19T07:31:10.756Z,12.20
2023-08-19T07:33:38.074Z,12.70
2023-08-19T07:36:06.195Z,12.52
2023-08-19T07:38:33.640Z,12.57
2023-08-19T07:41:00.985Z,12.30
2023-08-19T07:43:28.381Z,12.03
2023-08-19T07:45:55.824Z,11.80
2023-08-19T07:48:24.728Z,12.15
2023-08-19T07:50:52.304Z,12.50
2023-08-19T07:53:19.537Z,12.00
2023-08-19T07:55:48.845Z,11.17
2023-08-19T07:58:16.313Z,11.68
2023-08-19T08:00:43.591Z,11.63
2023-08-19T08:03:10.930Z,10.60
2023-08-19T08:05:39.944Z,10.82
2023-08-19T08:08:07.294Z,11.33
2023-08-19T08:10:34.961Z,11.27
2023-08-19T08:13:02.328Z,11.20
2023-08-19T08:15:31.056Z,11.15
2023-08-19T08:17:58.406Z,10.77
2023-08-19T08:20:25.888Z,10.37
2023-08-19T08:22:54.780Z,10.45
2023-08-19T08:25:22.053Z,10.52
2023-08-19T08:27:49.467Z,9.40
2023-08-19T08:30:16.910Z,10.10
2023-08-19T08:32:44.179Z,9.70
2023-08-19T08:35:11.545Z,9.73
2023-08-19T08:37:38.826Z,10.45
2023-08-19T08:40:09.296Z,10.43
2023-08-19T08:42:36.971Z,10.80
2023-08-19T08:45:05.368Z,10.47
2023-08-19T08:47:32.979Z,10.40
2023-08-19T08:50:00.916Z,9.80
2023-08-19T08:52:28.434Z,10.20
2023-08-19T08:54:56.161Z,10.07
2023-08-19T08:57:25.099Z,10.37
2023-08-19T08:59:54.041Z,9.95
2023-08-19T09:02:22.774Z,9.85
2023-08-19T09:04:50.623Z,9.88
2023-08-19T09:07:25.807Z,11.50
2023-08-19T09:09:54.392Z,10.40
2023-08-19T09:12:23.476Z,10.38
2023-08-19T09:14:57.673Z,11.15
2023-08-19T09:17:25.081Z,9.88
2023-08-19T09:19:52.427Z,10.43
2023-08-19T09:22:23.825Z,10.17
2023-08-19T09:24:54.449Z,9.07
2023-08-19T09:27:27.547Z,9.85
2023-08-19T09:29:56.686Z,8.57
2023-08-19T09:32:31.461Z,8.18
2023-08-19T09:35:03.468Z,9.17
2023-08-19T09:37:31.355Z,8.98
2023-08-19T09:39:58.841Z,10.05
2023-08-19T09:42:28.341Z,8.98
2023-08-19T09:45:00.733Z,10.07
2023-08-19T09:47:29.308Z,9.80
2023-08-19T09:49:58.362Z,9.43
2023-08-19T09:52:25.767Z,9.32
2023-08-19T09:54:54.354Z,9.57
2023-08-19T09:57:33.048Z,9.55
2023-08-19T10:00:05.475Z,9.43
2023-08-19T10:02:34.829Z,10.23
2023-08-19T10:05:02.608Z,9.85
2023-08-19T10:07:33.101Z,9.00
2023-08-19T10:10:05.069Z,9.07
2023-08-19T10:12:35.751Z,8.90
2023-08-19T10:15:06.025Z,8.57
2023-08-19T10:17:37.961Z,9.20
2023-08-19T10:20:11.411Z,8.75
2023-08-19T10:22:43.398Z,10.00
2023-08-19T10:25:13.367Z,9.33
2023-08-19T10:27:43.410Z,9.63
2023-08-19T10:30:39.427Z,8.63
2023-08-19T10:33:33.987Z,9.15
2023-08-19T10:36:04.269Z,8.68
2023-08-19T10:38:46.868Z,8.87
2023-08-19T10:41:20.266Z,8.70
2023-08-19T10:44:03.536Z,9.85
2023-08-19T10:46:38.834Z,8.93
2023-08-19T10:49:07.386Z,9.15
2023-08-19T10:51:49.469Z,8.43
2023-08-19T10:54:25.988Z,8.75
2023-08-19T10:57:06.817Z,8.85
2023-08-19T10:59:35.699Z,8.10
2023-08-19T11:02:06.162Z,9.15
2023-08-19T11:04:34.085Z,8.93
2023-08-19T11:07:01.498Z,8.57
2023-08-19T11:09:29.545Z,8.55
2023-08-19T11:11:57.650Z,8.75
2023-08-19T11:14:25.959Z,9.40
2023-08-19T11:16:55.037Z,8.83
2023-08-19T11:19:24.282Z,8.50
2023-08-19T11:21:52.233Z,8.43
2023-08-19T11:24:20.084Z,8.60
2023-08-19T11:26:52.017Z,9.90
2023-08-19T11:29:19.476Z,8.17
2023-08-19T11:31:48.984Z,8.00
2023-08-19T11:34:16.388Z,8.60
2023-08-19T11:36:46.656Z,8.20
2023-08-19T11:39:14.263Z,8.30
2023-08-19T11:41:41.734Z,8.47
2023-08-19T11:44:09.131Z,7.82
2023-08-19T11:46:36.886Z,8.07
2023-08-19T11:49:07.213Z,8.13
2023-08-19T11:51:38.226Z,8.02
2023-08-19T11:54:09.459Z,7.27
2023-08-19T11:56:50.331Z,7.47
2023-08-19T11:59:18.590Z,7.60
2023-08-19T12:01:47.915Z,6.40
2023-08-19T12:04:19.187Z,6.78
2023-08-19T12:06:48.498Z,6.57
2023-08-19T12:09:19.388Z,6.53
2023-08-19T12:11:48.292Z,5.90
2023-08-19T12:14:16.222Z,5.65
2023-08-19T12:16:43.528Z,5.75
2023-08-19T12:19:10.874Z,4.73
2023-08-19T12:21:38.144Z,4.88
2023-08-19T12:24:06.237Z,5.40
2023-08-19T12:26:35.026Z,5.82
2023-08-19T12:29:03.590Z,5.93
2023-08-19T12:31:30.942Z,5.00
2023-08-19T12:33:58.231Z,5.80
2023-08-19T12:36:25.600Z,7.22
2023-08-19T12:38:52.921Z,6.88
2023-08-19T12:41:20.825Z,7.25
2023-08-19T12:43:49.602Z,6.50
2023-08-19T12:46:18.871Z,6.65
2023-08-19T12:48:46.161Z,7.40
2023-08-19T12:51:13.551Z,6.53
2023-08-19T12:53:41.226Z,7.13
2023-08-19T12:56:08.726Z,6.33
2023-08-19T12:58:36.053Z,6.85
2023-08-19T13:01:06.252Z,6.35
2023-08-19T13:03:33.739Z,7.18
2023-08-19T13:06:01.073Z,7.60
2023-08-19T13:08:28.445Z,6.60
2023-08-19T13:10:55.857Z,6.80
2023-08-19T13:13:23.229Z,7.13
2023-08-19T13:15:50.477Z,7.13
2023-08-19T13:18:20.382Z,7.85
2023-08-19T13:20:47.937Z,7.23
2023-08-19T13:23:15.237Z,6.97
2023-08-19T13:25:42.540Z,7.38
2023-08-19T13:28:10.900Z,7.03
2023-08-19T13:30:38.325Z,7.45
2023-08-19T13:33:07.860Z,7.50
2023-08-19T13:35:36.775Z,7.70
2023-08-19T13:38:04.551Z,8.00
2023-08-19T13:40:31.936Z,7.75
2023-08-19T13:42:59.234Z,8.77
2023-08-19T13:45:26.959Z,8.17
2023-08-19T13:48:11.880Z,8.20
2023-08-19T13:50:43.354Z,7.47
2023-08-19T13:53:10.793Z,8.27
2023-08-19T13:55:38.760Z,8.13
2023-08-19T13:58:06.095Z,8.23
2023-08-19T14:00:33.439Z,8.55
2023-08-19T14:03:01.125Z,9.73
2023-08-19T14:05:30.261Z,8.70
2023-08-19T14:07:59.377Z,5.80
2023-08-19T14:10:28.811Z,5.40
2023-08-19T14:12:56.224Z,4.65
2023-08-19T14:15:25.814Z,4.22
2023-08-19T14:17:54.702Z,5.47
2023-08-19T14:20:22.418Z,4.65
2023-08-19T14:22:49.837Z,4.13
2023-08-19T14:25:18.662Z,3.80
2023-08-19T14:27:46.376Z,4.20
2023-08-19T14:30:14.033Z,5.03
2023-08-19T14:32:41.422Z,7.35
2023-08-19T14:35:08.837Z,7.10
2023-08-19T14:37:39.025Z,5.50
2023-08-19T14:40:09.381Z,4.63
2023-08-19T14:42:38.204Z,4.78
2023-08-19T14:45:06.361Z,5.47
2023-08-19T14:47:34.826Z,5.73
2023-08-19T14:50:02.356Z,5.18
2023-08-19T14:52:29.675Z,5.97
2023-08-19T14:54:56.941Z,5.45
2023-08-19T14:57:24.316Z,5.70
2023-08-19T14:59:53.119Z,6.17
2023-08-19T15:02:25.947Z,6.75
2023-08-19T15:04:53.616Z,5.60
2023-08-19T15:07:20.930Z,5.57
2023-08-19T15:09:48.178Z,6.53
2023-08-19T15:12:15.838Z,5.87
2023-08-19T15:14:43.155Z,5.78
2023-08-19T15:17:11.889Z,5.43
2023-08-19T15:19:39.242Z,5.13
2023-08-19T15:22:06.607Z,4.68
2023-08-19T15:24:33.937Z,5.57
2023-08-19T15:27:01.287Z,5.00
2023-08-19T15:29:28.578Z,4.95
2023-08-19T15:31:56.017Z,4.60
2023-08-19T15:34:28.438Z,15.32
2023-08-19T15:36:55.790Z,9.83
2023-08-19T15:39:24.834Z,7.50
2023-08-19T15:41:52.415Z,8.80
2023-08-19T15:44:20.705Z,9.13
2023-08-19T15:46:48.287Z,7.47
2023-08-19T15:49:15.548Z,7.20
2023-08-19T15:51:44.296Z,9.15
2023-08-19T15:54:11.583Z,8.68
2023-08-19T15:56:38.883Z,8.60
2023-08-19T15:59:06.320Z,7.63
2023-08-19T16:01:33.756Z,7.57
2023-08-19T16:04:01.042Z,5.72
2023-08-19T16:06:30.040Z,6.35
2023-08-19T16:08:58.898Z,5.97
2023-08-19T16:11:26.253Z,5.78
2023-08-19T16:13:53.615Z,6.37
2023-08-19T16:16:21.282Z,6.10
2023-08-19T16:18:48.545Z,6.25
2023-08-19T16:21:15.835Z,6.25
2023-08-19T16:23:43.196Z,6.65
2023-08-19T16:26:13.245Z,6.90
2023-08-19T16:28:40.548Z,6.05
2023-08-19T16:31:08.059Z,6.43
2023-08-19T16:33:36.667Z,6.57
2023-08-19T16:36:04.699Z,6.95
2023-08-19T16:38:32.250Z,6.77
2023-08-19T16:40:59.588Z,8.77
2023-08-19T16:43:28.337Z,11.13
2023-08-19T16:45:56.093Z,10.93
2023-08-19T16:48:23.721Z,7.80
2023-08-19T16:50:51.327Z,9.53
2023-08-19T16:53:19.937Z,7.93
2023-08-19T16:55:54.520Z,7.47
2023-08-19T16:58:22.273Z,7.00
2023-08-19T17:00:59.336Z,6.97
2023-08-19T17:03:26.896Z,6.40
2023-08-19T17:05:54.330Z,7.10
2023-08-19T17:08:22.114Z,6.43
2023-08-19T17:10:49.519Z,5.93
2023-08-19T17:13:17.099Z,7.15
2023-08-19T17:15:44.837Z,6.27
2023-08-19T17:18:14.789Z,6.18
2023-08-19T17:20:42.137Z,6.10
2023-08-19T17:23:09.513Z,6.85
2023-08-19T17:25:37.323Z,6.82
2023-08-19T17:28:05.297Z,6.50
2023-08-19T17:30:32.672Z,6.55
2023-08-19T17:33:00.160Z,6.82
2023-08-19T17:35:29.094Z,6.90
2023-08-19T17:37:56.410Z,6.93
2023-08-19T17:40:24.343Z,6.97
2023-08-19T17:42:51.796Z,7.10
2023-08-19T17:45:19.259Z,7.43
2023-08-19T17:47:46.590Z,6.90
2023-08-19T17:50:13.965Z,6.82
2023-08-19T17:52:44.738Z,6.70
2023-08-19T17:55:13.982Z,6.88
2023-08-19T17:57:41.371Z,6.07
2023-08-19T18:00:09.966Z,6.47
2023-08-19T18:02:37.430Z,6.65
2023-08-19T18:05:05.279Z,6.50
2023-08-19T18:07:33.148Z,6.07
2023-08-19T18:10:03.190Z,7.40
2023-08-19T18:12:30.730Z,7.03
2023-08-19T18:14:58.278Z,7.15
2023-08-19T18:17:25.715Z,7.30
2023-08-19T18:19:53.205Z,7.72
2023-08-19T18:22:21.016Z,7.65
2023-08-19T18:24:48.323Z,6.95
2023-08-19T18:27:17.208Z,7.65
2023-08-19T18:29:44.730Z,7.33
2023-08-19T18:32:12.218Z,6.97
2023-08-19T18:34:40.014Z,7.70
2023-08-19T18:37:07.466Z,7.93
2023-08-19T18:39:34.900Z,7.85
2023-08-19T18:42:02.353Z,7.57
2023-08-19T18:44:31.279Z,8.00
2023-08-19T18:46:58.908Z,8.10
2023-08-19T18:49:27.092Z,7.75
2023-08-19T18:51:54.457Z,8.15
2023-08-19T18:54:23.186Z,7.70
2023-08-19T18:56:50.744Z,8.25
2023-08-19T18:59:18.246Z,9.20
2023-08-19T19:01:47.144Z,8.02
2023-08-19T19:04:14.809Z,7.63
2023-08-19T19:06:42.718Z,7.67
2023-08-19T19:09:10.359Z,7.47
2023-08-19T19:11:38.049Z,7.28
2023-08-19T19:14:05.765Z,8.30
2023-08-19T19:16:33.532Z,7.63
2023-08-19T19:19:02.948Z,7.10
2023-08-19T19:21:30.910Z,7.45
2023-08-19T19:24:01.734Z,8.13
2023-08-19T19:26:29.244Z,7.40
2023-08-19T19:28:56.650Z,8.10
2023-08-19T19:31:24.151Z,7.47
2023-08-19T19:33:51.982Z,7.35
2023-08-19T19:36:21.215Z,7.63
2023-08-19T19:38:48.837Z,8.00
2023-08-19T19:41:16.437Z,8.20
2023-08-19T19:43:44.173Z,7.87
2023-08-19T19:46:11.930Z,8.13
2023-08-19T19:48:39.572Z,8.88
2023-08-19T19:51:07.141Z,8.57
2023-08-19T19:53:36.415Z,8.50
2023-08-19T19:56:04.366Z,8.63
2023-08-19T19:58:32.219Z,7.75
2023-08-19T20:00:59.912Z,8.35
2023-08-19T20:03:27.770Z,8.95
2023-08-19T20:05:55.927Z,8.68
2023-08-19T20:08:24.231Z,8.50
2023-08-19T20:10:53.424Z,8.02
2023-08-19T20:13:21.707Z,8.88
2023-08-19T20:15:49.530Z,8.45
2023-08-19T20:18:19.291Z,8.60
2023-08-19T20:20:46.942Z,8.20
2023-08-19T20:23:14.597Z,7.90
2023-08-19T20:25:42.203Z,8.80
2023-08-19T20:28:11.263Z,8.30
2023-08-19T20:30:41.529Z,7.97
2023-08-19T20:33:12.674Z,7.23
2023-08-19T20:35:40.725Z,8.80
2023-08-19T20:38:08.716Z,8.38
2023-08-19T20:40:37.810Z,8.23
2023-08-19T20:43:05.649Z,7.68
2023-08-19T20:45:34.852Z,7.70
2023-08-19T20:48:04.195Z,7.85
2023-08-19T20:50:32.437Z,7.63
2023-08-19T20:53:00.349Z,8.15
2023-08-19T20:55:28.277Z,8.65
2023-08-19T20:57:57.193Z,8.57
2023-08-19T21:00:25.661Z,8.27
2023-08-19T21:02:58.148Z,7.90
2023-08-19T21:05:26.221Z,8.60
2023-08-19T21:07:54.101Z,8.05
2023-08-19T21:10:21.800Z,7.67
2023-08-19T21:12:49.420Z,7.80
2023-08-19T21:15:18.745Z,7.85
2023-08-19T21:17:50.061Z,7.78
2023-08-19T21:20:21.527Z,8.10
2023-08-19T21:22:49.425Z,7.60
2023-08-19T21:25:17.339Z,8.00
2023-08-19T21:27:47.296Z,8.05
2023-08-19T21:30:15.655Z,7.80
2023-08-19T21:32:46.420Z,7.43
2023-08-19T21:35:14.986Z,6.93
2023-08-19T21:37:44.548Z,8.07
2023-08-19T21:40:15.624Z,7.22
2023-08-19T21:42:44.492Z,8.20
2023-08-19T21:45:13.862Z,8.27
2023-08-19T21:47:43.517Z,7.80
2023-08-19T21:50:11.736Z,7.57
2023-08-19T21:52:41.666Z,8.18
2023-08-19T21:55:12.443Z,8.23
2023-08-19T21:57:40.908Z,7.88
2023-08-19T22:00:14.200Z,7.80
2023-08-19T22:02:42.841Z,7.38
2023-08-19T22:05:11.621Z,8.38
2023-08-19T22:07:39.719Z,7.55
2023-08-19T22:10:10.815Z,8.10
2023-08-19T22:12:40.652Z,8.47
2023-08-19T22:15:09.755Z,8.10
2023-08-19T22:17:39.501Z,7.32
2023-08-19T22:20:09.057Z,7.57
2023-08-19T22:22:37.130Z,7.40
2023-08-19T22:25:06.717Z,6.77
2023-08-19T22:27:35.175Z,8.02
2023-08-19T22:30:05.954Z,7.85
2023-08-19T22:32:34.770Z,7.63
2023-08-19T22:35:04.857Z,8.07
2023-08-19T22:37:34.297Z,7.50
2023-08-19T22:40:02.611Z,7.18
2023-08-19T22:42:30.409Z,7.90
2023-08-19T22:44:58.258Z,7.22
2023-08-19T22:47:28.041Z,8.10
2023-08-19T22:49:58.052Z,7.53
2023-08-19T22:52:31.006Z,8.10
2023-08-19T22:55:02.936Z,7.43
2023-08-19T22:57:33.896Z,6.93
2023-08-19T23:00:02.743Z,7.45
2023-08-19T23:02:33.010Z,7.67
2023-08-19T23:05:01.547Z,7.53
2023-08-19T23:07:36.734Z,7.93
2023-08-19T23:10:08.046Z,6.78
2023-08-19T23:12:36.559Z,7.60
2023-08-19T23:15:05.394Z,7.60
2023-08-19T23:17:39.576Z,7.50
2023-08-19T23:20:15.746Z,7.88
2023-08-19T23:22:46.594Z,7.65
2023-08-19T23:25:19.122Z,7.95
2023-08-19T23:27:51.609Z,7.23
2023-08-19T23:30:24.700Z,7.95
2023-08-19T23:32:55.979Z,7.55
2023-08-19T23:35:26.333Z,7.55
2023-08-19T23:37:59.624Z,7.18
2023-08-19T23:43:23.778Z,7.60
2023-08-19T23:46:01.104Z,8.75
2023-08-19T23:48:36.569Z,7.88
2023-08-19T23:51:15.774Z,7.35
2023-08-19T23:53:55.770Z,8.03
2023-08-19T23:56:58.882Z,7.57
2023-08-19T23:59:42.448Z,7.70
